sensor_id;sensor_type;location;lat;lon;timestamp;P1;durP1;ratioP1;P2;durP2;ratioP2
9076;SDS011;4574;51.072;17.174;2023-04-24T00:00:37;12.17;;;9.10;;
9076;SDS011;4574;51.072;17.174;2023-04-24T00:03:07;10.00;;;8.43;;
9076;SDS011;4574;51.072;17.174;2023-04-24T00:05:36;11.77;;;8.70;;
9076;SDS011;4574;51.072;17.174;2023-04-24T00:08:08;12.10;;;9.13;;
9076;SDS011;4574;51.072;17.174;2023-04-24T00:10:36;10.67;;;8.80;;
9076;SDS011;4574;51.072;17.174;2023-04-24T00:13:05;15.33;;;9.00;;
9076;SDS011;4574;51.072;17.174;2023-04-24T00:15:34;11.93;;;8.97;;
9076;SDS011;4574;51.072;17.174;2023-04-24T00:18:02;14.73;;;9.90;;
9076;SDS011;4574;51.072;17.174;2023-04-24T00:20:31;12.03;;;9.00;;
9076;SDS011;4574;51.072;17.174;2023-04-24T00:23:02;13.07;;;9.13;;
9076;SDS011;4574;51.072;17.174;2023-04-24T00:25:32;12.50;;;8.77;;
9076;SDS011;4574;51.072;17.174;2023-04-24T00:28:00;15.33;;;10.03;;
9076;SDS011;4574;51.072;17.174;2023-04-24T00:30:29;14.97;;;10.70;;
9076;SDS011;4574;51.072;17.174;2023-04-24T00:32:58;16.80;;;10.90;;
9076;SDS011;4574;51.072;17.174;2023-04-24T00:35:26;18.53;;;10.77;;
9076;SDS011;4574;51.072;17.174;2023-04-24T00:37:55;17.47;;;11.00;;
9076;SDS011;4574;51.072;17.174;2023-04-24T00:40:27;13.27;;;11.00;;
9076;SDS011;4574;51.072;17.174;2023-04-24T00:42:57;12.03;;;9.97;;
9076;SDS011;4574;51.072;17.174;2023-04-24T00:45:26;12.00;;;10.53;;
9076;SDS011;4574;51.072;17.174;2023-04-24T00:47:55;13.90;;;11.13;;
9076;SDS011;4574;51.072;17.174;2023-04-24T00:50:24;16.13;;;11.87;;
9076;SDS011;4574;51.072;17.174;2023-04-24T00:52:53;15.77;;;11.90;;
9076;SDS011;4574;51.072;17.174;2023-04-24T00:55:25;16.07;;;12.13;;
9076;SDS011;4574;51.072;17.174;2023-04-24T00:57:54;13.23;;;10.63;;
9076;SDS011;4574;51.072;17.174;2023-04-24T01:00:24;13.57;;;11.80;;
9076;SDS011;4574;51.072;17.174;2023-04-24T01:02:53;14.67;;;11.87;;
9076;SDS011;4574;51.072;17.174;2023-04-24T01:05:23;15.37;;;11.67;;
9076;SDS011;4574;51.072;17.174;2023-04-24T01:07:52;13.97;;;10.77;;
9076;SDS011;4574;51.072;17.174;2023-04-24T01:10:21;13.63;;;11.07;;
9076;SDS011;4574;51.072;17.174;2023-04-24T01:12:52;13.33;;;11.17;;
9076;SDS011;4574;51.072;17.174;2023-04-24T01:15:21;14.97;;;11.10;;
9076;SDS011;4574;51.072;17.174;2023-04-24T01:17:51;14.33;;;10.43;;
9076;SDS011;4574;51.072;17.174;2023-04-24T01:20:20;12.53;;;9.50;;
9076;SDS011;4574;51.072;17.174;2023-04-24T01:22:51;12.07;;;9.67;;
9076;SDS011;4574;51.072;17.174;2023-04-24T01:25:20;12.67;;;9.83;;
9076;SDS011;4574;51.072;17.174;2023-04-24T01:27:49;10.87;;;8.53;;
9076;SDS011;4574;51.072;17.174;2023-04-24T01:30:18;13.70;;;9.47;;
9076;SDS011;4574;51.072;17.174;2023-04-24T01:35:15;12.07;;;9.17;;
9076;SDS011;4574;51.072;17.174;2023-04-24T01:37:44;10.70;;;8.87;;
9076;SDS011;4574;51.072;17.174;2023-04-24T01:40:14;12.50;;;9.23;;
9076;SDS011;4574;51.072;17.174;2023-04-24T01:42:42;10.67;;;9.07;;
9076;SDS011;4574;51.072;17.174;2023-04-24T01:45:13;10.90;;;8.27;;
9076;SDS011;4574;51.072;17.174;2023-04-24T01:47:42;12.97;;;8.30;;
9076;SDS011;4574;51.072;17.174;2023-04-24T01:50:13;10.17;;;8.13;;
9076;SDS011;4574;51.072;17.174;2023-04-24T01:52:41;11.67;;;8.77;;
9076;SDS011;4574;51.072;17.174;2023-04-24T01:55:10;12.47;;;8.50;;
9076;SDS011;4574;51.072;17.174;2023-04-24T01:57:40;11.73;;;8.80;;
9076;SDS011;4574;51.072;17.174;2023-04-24T02:00:09;12.73;;;8.47;;
9076;SDS011;4574;51.072;17.174;2023-04-24T02:02:39;13.67;;;8.47;;
9076;SDS011;4574;51.072;17.174;2023-04-24T02:05:12;11.43;;;8.37;;
9076;SDS011;4574;51.072;17.174;2023-04-24T02:07:41;11.27;;;9.30;;
9076;SDS011;4574;51.072;17.174;2023-04-24T02:10:10;10.67;;;8.90;;
9076;SDS011;4574;51.072;17.174;2023-04-24T02:12:40;12.30;;;9.10;;
9076;SDS011;4574;51.072;17.174;2023-04-24T02:15:09;10.83;;;9.40;;
9076;SDS011;4574;51.072;17.174;2023-04-24T02:17:38;11.63;;;10.00;;
9076;SDS011;4574;51.072;17.174;2023-04-24T02:20:07;15.00;;;10.37;;
9076;SDS011;4574;51.072;17.174;2023-04-24T02:22:41;12.87;;;9.87;;
9076;SDS011;4574;51.072;17.174;2023-04-24T02:25:10;12.83;;;10.33;;
9076;SDS011;4574;51.072;17.174;2023-04-24T02:27:38;13.77;;;10.00;;
9076;SDS011;4574;51.072;17.174;2023-04-24T02:30:09;14.03;;;10.40;;
9076;SDS011;4574;51.072;17.174;2023-04-24T02:32:38;11.80;;;9.73;;
9076;SDS011;4574;51.072;17.174;2023-04-24T02:35:07;13.37;;;9.53;;
9076;SDS011;4574;51.072;17.174;2023-04-24T02:37:36;12.53;;;9.03;;
9076;SDS011;4574;51.072;17.174;2023-04-24T02:40:06;12.00;;;9.27;;
9076;SDS011;4574;51.072;17.174;2023-04-24T02:42:35;12.30;;;9.30;;
9076;SDS011;4574;51.072;17.174;2023-04-24T02:45:04;11.30;;;8.97;;
9076;SDS011;4574;51.072;17.174;2023-04-24T02:47:35;12.53;;;9.53;;
9076;SDS011;4574;51.072;17.174;2023-04-24T02:50:04;12.10;;;9.77;;
9076;SDS011;4574;51.072;17.174;2023-04-24T02:52:35;12.40;;;10.00;;
9076;SDS011;4574;51.072;17.174;2023-04-24T02:55:03;12.13;;;10.57;;
9076;SDS011;4574;51.072;17.174;2023-04-24T02:57:34;19.73;;;10.13;;
9076;SDS011;4574;51.072;17.174;2023-04-24T03:00:03;13.40;;;10.40;;
9076;SDS011;4574;51.072;17.174;2023-04-24T03:02:35;13.57;;;11.00;;
9076;SDS011;4574;51.072;17.174;2023-04-24T03:05:04;13.87;;;11.20;;
9076;SDS011;4574;51.072;17.174;2023-04-24T03:07:34;17.77;;;11.20;;
9076;SDS011;4574;51.072;17.174;2023-04-24T03:10:03;14.20;;;11.40;;
9076;SDS011;4574;51.072;17.174;2023-04-24T03:12:32;13.70;;;10.73;;
9076;SDS011;4574;51.072;17.174;2023-04-24T03:15:01;13.43;;;10.83;;
9076;SDS011;4574;51.072;17.174;2023-04-24T03:17:30;17.87;;;11.30;;
9076;SDS011;4574;51.072;17.174;2023-04-24T03:20:00;15.53;;;11.87;;
9076;SDS011;4574;51.072;17.174;2023-04-24T03:22:29;13.17;;;11.43;;
9076;SDS011;4574;51.072;17.174;2023-04-24T03:24:59;14.37;;;11.30;;
9076;SDS011;4574;51.072;17.174;2023-04-24T03:27:27;14.23;;;11.97;;
9076;SDS011;4574;51.072;17.174;2023-04-24T03:29:57;15.47;;;11.80;;
9076;SDS011;4574;51.072;17.174;2023-04-24T03:32:25;67.23;;;34.53;;
9076;SDS011;4574;51.072;17.174;2023-04-24T03:34:55;28.13;;;16.70;;
9076;SDS011;4574;51.072;17.174;2023-04-24T03:37:25;15.20;;;13.10;;
9076;SDS011;4574;51.072;17.174;2023-04-24T03:39:54;15.83;;;12.90;;
9076;SDS011;4574;51.072;17.174;2023-04-24T03:42:22;15.30;;;12.93;;
9076;SDS011;4574;51.072;17.174;2023-04-24T03:44:51;16.23;;;13.03;;
9076;SDS011;4574;51.072;17.174;2023-04-24T03:47:19;15.87;;;12.60;;
9076;SDS011;4574;51.072;17.174;2023-04-24T03:49:48;17.67;;;12.63;;
9076;SDS011;4574;51.072;17.174;2023-04-24T03:52:17;17.67;;;13.20;;
9076;SDS011;4574;51.072;17.174;2023-04-24T03:54:47;18.00;;;12.87;;
9076;SDS011;4574;51.072;17.174;2023-04-24T03:57:16;15.63;;;11.57;;
9076;SDS011;4574;51.072;17.174;2023-04-24T03:59:44;16.00;;;12.33;;
9076;SDS011;4574;51.072;17.174;2023-04-24T04:02:13;16.03;;;12.30;;
9076;SDS011;4574;51.072;17.174;2023-04-24T04:04:42;15.50;;;12.13;;
9076;SDS011;4574;51.072;17.174;2023-04-24T04:07:10;13.03;;;11.40;;
9076;SDS011;4574;51.072;17.174;2023-04-24T04:09:39;15.13;;;11.33;;
9076;SDS011;4574;51.072;17.174;2023-04-24T04:12:09;15.30;;;11.50;;
9076;SDS011;4574;51.072;17.174;2023-04-24T04:14:39;18.57;;;14.57;;
9076;SDS011;4574;51.072;17.174;2023-04-24T04:17:07;22.53;;;15.53;;
9076;SDS011;4574;51.072;17.174;2023-04-24T04:19:36;18.40;;;13.70;;
9076;SDS011;4574;51.072;17.174;2023-04-24T04:22:05;16.10;;;12.97;;
9076;SDS011;4574;51.072;17.174;2023-04-24T04:24:34;17.50;;;13.90;;
9076;SDS011;4574;51.072;17.174;2023-04-24T04:27:04;18.10;;;13.53;;
9076;SDS011;4574;51.072;17.174;2023-04-24T04:29:34;18.60;;;13.57;;
9076;SDS011;4574;51.072;17.174;2023-04-24T04:32:03;18.90;;;14.00;;
9076;SDS011;4574;51.072;17.174;2023-04-24T04:34:32;20.90;;;13.83;;
9076;SDS011;4574;51.072;17.174;2023-04-24T04:37:01;16.27;;;12.67;;
9076;SDS011;4574;51.072;17.174;2023-04-24T04:39:30;16.50;;;12.53;;
9076;SDS011;4574;51.072;17.174;2023-04-24T04:41:58;19.37;;;12.40;;
9076;SDS011;4574;51.072;17.174;2023-04-24T04:44:27;16.37;;;11.80;;
9076;SDS011;4574;51.072;17.174;2023-04-24T04:46:58;19.20;;;13.43;;
9076;SDS011;4574;51.072;17.174;2023-04-24T04:49:27;23.23;;;15.20;;
9076;SDS011;4574;51.072;17.174;2023-04-24T04:51:56;15.13;;;10.67;;
9076;SDS011;4574;51.072;17.174;2023-04-24T04:54:24;14.67;;;11.47;;
9076;SDS011;4574;51.072;17.174;2023-04-24T04:56:52;13.80;;;10.67;;
9076;SDS011;4574;51.072;17.174;2023-04-24T04:59:21;15.23;;;10.83;;
9076;SDS011;4574;51.072;17.174;2023-04-24T05:01:50;13.93;;;10.70;;
9076;SDS011;4574;51.072;17.174;2023-04-24T05:04:19;16.90;;;10.40;;
9076;SDS011;4574;51.072;17.174;2023-04-24T05:06:48;20.43;;;12.70;;
9076;SDS011;4574;51.072;17.174;2023-04-24T05:09:17;13.23;;;10.60;;
9076;SDS011;4574;51.072;17.174;2023-04-24T05:11:46;18.03;;;10.43;;
9076;SDS011;4574;51.072;17.174;2023-04-24T05:14:15;11.77;;;9.87;;
9076;SDS011;4574;51.072;17.174;2023-04-24T05:16:44;10.90;;;9.30;;
9076;SDS011;4574;51.072;17.174;2023-04-24T05:19:13;15.90;;;10.47;;
9076;SDS011;4574;51.072;17.174;2023-04-24T05:21:43;13.60;;;10.37;;
9076;SDS011;4574;51.072;17.174;2023-04-24T05:24:12;11.63;;;9.63;;
9076;SDS011;4574;51.072;17.174;2023-04-24T05:26:40;14.83;;;10.70;;
9076;SDS011;4574;51.072;17.174;2023-04-24T05:29:09;11.40;;;9.20;;
9076;SDS011;4574;51.072;17.174;2023-04-24T05:31:38;12.97;;;8.93;;
9076;SDS011;4574;51.072;17.174;2023-04-24T05:34:08;12.53;;;9.63;;
9076;SDS011;4574;51.072;17.174;2023-04-24T05:36:37;12.07;;;9.47;;
9076;SDS011;4574;51.072;17.174;2023-04-24T05:39:07;11.83;;;8.47;;
9076;SDS011;4574;51.072;17.174;2023-04-24T05:41:36;14.47;;;8.90;;
9076;SDS011;4574;51.072;17.174;2023-04-24T05:44:05;12.13;;;8.67;;
9076;SDS011;4574;51.072;17.174;2023-04-24T05:46:33;15.87;;;8.60;;
9076;SDS011;4574;51.072;17.174;2023-04-24T05:49:02;14.03;;;8.63;;
9076;SDS011;4574;51.072;17.174;2023-04-24T05:51:31;11.43;;;8.10;;
9076;SDS011;4574;51.072;17.174;2023-04-24T05:53:59;10.97;;;7.93;;
9076;SDS011;4574;51.072;17.174;2023-04-24T05:56:31;10.80;;;7.57;;
9076;SDS011;4574;51.072;17.174;2023-04-24T05:59:00;12.50;;;7.50;;
9076;SDS011;4574;51.072;17.174;2023-04-24T06:01:28;9.53;;;7.13;;
9076;SDS011;4574;51.072;17.174;2023-04-24T06:03:58;7.63;;;6.07;;
9076;SDS011;4574;51.072;17.174;2023-04-24T06:06:27;7.40;;;5.60;;
9076;SDS011;4574;51.072;17.174;2023-04-24T06:08:55;7.97;;;5.60;;
9076;SDS011;4574;51.072;17.174;2023-04-24T06:11:25;6.63;;;4.70;;
9076;SDS011;4574;51.072;17.174;2023-04-24T06:13:55;5.10;;;4.50;;
9076;SDS011;4574;51.072;17.174;2023-04-24T06:16:24;6.63;;;4.73;;
9076;SDS011;4574;51.072;17.174;2023-04-24T06:18:52;8.23;;;4.30;;
9076;SDS011;4574;51.072;17.174;2023-04-24T06:21:21;8.67;;;4.90;;
9076;SDS011;4574;51.072;17.174;2023-04-24T06:23:50;8.37;;;5.77;;
9076;SDS011;4574;51.072;17.174;2023-04-24T06:26:19;6.87;;;5.40;;
9076;SDS011;4574;51.072;17.174;2023-04-24T06:28:47;6.67;;;4.90;;
9076;SDS011;4574;51.072;17.174;2023-04-24T06:31:18;6.17;;;5.53;;
9076;SDS011;4574;51.072;17.174;2023-04-24T06:33:47;6.00;;;5.03;;
9076;SDS011;4574;51.072;17.174;2023-04-24T06:36:17;6.97;;;5.57;;
9076;SDS011;4574;51.072;17.174;2023-04-24T06:38:45;7.30;;;4.70;;
9076;SDS011;4574;51.072;17.174;2023-04-24T06:41:14;9.57;;;4.87;;
9076;SDS011;4574;51.072;17.174;2023-04-24T06:43:43;6.13;;;4.87;;
9076;SDS011;4574;51.072;17.174;2023-04-24T06:46:11;7.83;;;5.17;;
9076;SDS011;4574;51.072;17.174;2023-04-24T06:48:41;5.67;;;5.03;;
9076;SDS011;4574;51.072;17.174;2023-04-24T06:51:10;7.33;;;5.00;;
9076;SDS011;4574;51.072;17.174;2023-04-24T06:53:38;6.30;;;4.60;;
9076;SDS011;4574;51.072;17.174;2023-04-24T06:56:13;6.13;;;5.20;;
9076;SDS011;4574;51.072;17.174;2023-04-24T06:58:42;5.70;;;5.10;;
9076;SDS011;4574;51.072;17.174;2023-04-24T07:01:11;6.40;;;4.80;;
9076;SDS011;4574;51.072;17.174;2023-04-24T07:03:41;6.57;;;4.80;;
9076;SDS011;4574;51.072;17.174;2023-04-24T07:06:10;7.33;;;5.00;;
9076;SDS011;4574;51.072;17.174;2023-04-24T07:08:39;6.90;;;5.27;;
9076;SDS011;4574;51.072;17.174;2023-04-24T07:11:08;5.40;;;4.60;;
9076;SDS011;4574;51.072;17.174;2023-04-24T07:13:37;5.60;;;5.10;;
9076;SDS011;4574;51.072;17.174;2023-04-24T07:16:08;5.10;;;4.50;;
9076;SDS011;4574;51.072;17.174;2023-04-24T07:18:38;4.87;;;4.47;;
9076;SDS011;4574;51.072;17.174;2023-04-24T07:21:08;10.13;;;4.83;;
9076;SDS011;4574;51.072;17.174;2023-04-24T07:23:37;8.43;;;4.87;;
9076;SDS011;4574;51.072;17.174;2023-04-24T07:26:07;5.00;;;4.50;;
9076;SDS011;4574;51.072;17.174;2023-04-24T07:28:36;5.20;;;4.70;;
9076;SDS011;4574;51.072;17.174;2023-04-24T07:31:05;5.17;;;4.30;;
9076;SDS011;4574;51.072;17.174;2023-04-24T07:33:34;7.60;;;4.43;;
9076;SDS011;4574;51.072;17.174;2023-04-24T07:36:03;9.43;;;5.20;;
9076;SDS011;4574;51.072;17.174;2023-04-24T07:38:34;5.50;;;4.77;;
9076;SDS011;4574;51.072;17.174;2023-04-24T07:41:03;10.20;;;5.23;;
9076;SDS011;4574;51.072;17.174;2023-04-24T07:43:31;5.97;;;4.77;;
9076;SDS011;4574;51.072;17.174;2023-04-24T07:46:00;6.70;;;4.63;;
9076;SDS011;4574;51.072;17.174;2023-04-24T07:48:29;7.67;;;4.67;;
9076;SDS011;4574;51.072;17.174;2023-04-24T07:50:57;6.90;;;4.97;;
9076;SDS011;4574;51.072;17.174;2023-04-24T07:53:26;9.93;;;4.70;;
9076;SDS011;4574;51.072;17.174;2023-04-24T07:55:56;7.43;;;4.33;;
9076;SDS011;4574;51.072;17.174;2023-04-24T07:58:25;9.57;;;4.43;;
9076;SDS011;4574;51.072;17.174;2023-04-24T08:00:54;6.83;;;4.33;;
9076;SDS011;4574;51.072;17.174;2023-04-24T08:03:23;6.03;;;4.50;;
9076;SDS011;4574;51.072;17.174;2023-04-24T08:05:52;4.90;;;4.27;;
9076;SDS011;4574;51.072;17.174;2023-04-24T08:08:21;7.20;;;4.57;;
9076;SDS011;4574;51.072;17.174;2023-04-24T08:10:51;8.90;;;4.07;;
9076;SDS011;4574;51.072;17.174;2023-04-24T08:13:21;5.27;;;4.77;;
9076;SDS011;4574;51.072;17.174;2023-04-24T08:15:50;10.47;;;3.90;;
9076;SDS011;4574;51.072;17.174;2023-04-24T08:18:19;7.47;;;3.97;;
9076;SDS011;4574;51.072;17.174;2023-04-24T08:20:48;4.60;;;4.00;;
9076;SDS011;4574;51.072;17.174;2023-04-24T08:23:16;5.40;;;4.60;;
9076;SDS011;4574;51.072;17.174;2023-04-24T08:25:45;6.00;;;4.53;;
9076;SDS011;4574;51.072;17.174;2023-04-24T08:28:13;4.80;;;4.10;;
9076;SDS011;4574;51.072;17.174;2023-04-24T08:30:48;6.93;;;4.87;;
9076;SDS011;4574;51.072;17.174;2023-04-24T08:33:21;8.50;;;5.30;;
9076;SDS011;4574;51.072;17.174;2023-04-24T08:35:50;7.57;;;5.07;;
9076;SDS011;4574;51.072;17.174;2023-04-24T08:38:20;6.87;;;5.43;;
9076;SDS011;4574;51.072;17.174;2023-04-24T08:40:48;7.97;;;5.13;;
9076;SDS011;4574;51.072;17.174;2023-04-24T08:43:17;9.10;;;5.47;;
9076;SDS011;4574;51.072;17.174;2023-04-24T08:45:47;8.40;;;5.50;;
9076;SDS011;4574;51.072;17.174;2023-04-24T08:48:17;7.80;;;5.70;;
9076;SDS011;4574;51.072;17.174;2023-04-24T08:50:57;6.50;;;5.77;;
9076;SDS011;4574;51.072;17.174;2023-04-24T08:53:26;8.07;;;5.83;;
9076;SDS011;4574;51.072;17.174;2023-04-24T08:55:55;6.33;;;5.40;;
9076;SDS011;4574;51.072;17.174;2023-04-24T08:58:24;8.63;;;5.67;;
9076;SDS011;4574;51.072;17.174;2023-04-24T09:00:55;7.30;;;5.53;;
9076;SDS011;4574;51.072;17.174;2023-04-24T09:03:25;6.47;;;5.77;;
9076;SDS011;4574;51.072;17.174;2023-04-24T09:05:55;8.40;;;6.10;;
9076;SDS011;4574;51.072;17.174;2023-04-24T09:08:25;6.90;;;6.20;;
9076;SDS011;4574;51.072;17.174;2023-04-24T09:10:56;7.53;;;5.50;;
9076;SDS011;4574;51.072;17.174;2023-04-24T09:13:25;6.83;;;5.63;;
9076;SDS011;4574;51.072;17.174;2023-04-24T09:15:56;9.70;;;6.87;;
9076;SDS011;4574;51.072;17.174;2023-04-24T09:18:26;6.40;;;5.70;;
9076;SDS011;4574;51.072;17.174;2023-04-24T09:20:59;9.40;;;5.50;;
9076;SDS011;4574;51.072;17.174;2023-04-24T09:23:29;8.10;;;6.57;;
9076;SDS011;4574;51.072;17.174;2023-04-24T09:25:59;7.97;;;5.57;;
9076;SDS011;4574;51.072;17.174;2023-04-24T09:28:30;6.07;;;5.47;;
9076;SDS011;4574;51.072;17.174;2023-04-24T09:31:17;13.87;;;6.63;;
9076;SDS011;4574;51.072;17.174;2023-04-24T09:33:53;7.23;;;5.47;;
9076;SDS011;4574;51.072;17.174;2023-04-24T09:36:27;5.90;;;5.20;;
9076;SDS011;4574;51.072;17.174;2023-04-24T09:38:59;6.67;;;5.20;;
9076;SDS011;4574;51.072;17.174;2023-04-24T09:41:29;7.33;;;5.83;;
9076;SDS011;4574;51.072;17.174;2023-04-24T09:44:01;5.73;;;4.70;;
9076;SDS011;4574;51.072;17.174;2023-04-24T09:46:42;6.47;;;5.33;;
9076;SDS011;4574;51.072;17.174;2023-04-24T09:49:13;8.00;;;5.70;;
9076;SDS011;4574;51.072;17.174;2023-04-24T09:51:43;7.33;;;5.57;;
9076;SDS011;4574;51.072;17.174;2023-04-24T09:54:16;7.33;;;5.20;;
9076;SDS011;4574;51.072;17.174;2023-04-24T09:56:47;6.60;;;4.90;;
9076;SDS011;4574;51.072;17.174;2023-04-24T09:59:17;6.37;;;4.73;;
9076;SDS011;4574;51.072;17.174;2023-04-24T10:01:48;6.57;;;5.10;;
9076;SDS011;4574;51.072;17.174;2023-04-24T10:04:18;6.57;;;4.60;;
9076;SDS011;4574;51.072;17.174;2023-04-24T10:06:47;9.07;;;4.60;;
9076;SDS011;4574;51.072;17.174;2023-04-24T10:09:18;7.00;;;4.47;;
9076;SDS011;4574;51.072;17.174;2023-04-24T10:11:48;5.73;;;4.07;;
9076;SDS011;4574;51.072;17.174;2023-04-24T10:14:18;4.80;;;4.40;;
9076;SDS011;4574;51.072;17.174;2023-04-24T10:16:53;5.80;;;4.97;;
9076;SDS011;4574;51.072;17.174;2023-04-24T10:19:23;4.77;;;4.30;;
9076;SDS011;4574;51.072;17.174;2023-04-24T10:21:53;5.37;;;4.47;;
9076;SDS011;4574;51.072;17.174;2023-04-24T10:24:24;5.83;;;4.97;;
9076;SDS011;4574;51.072;17.174;2023-04-24T10:26:52;8.30;;;5.13;;
9076;SDS011;4574;51.072;17.174;2023-04-24T10:29:21;5.10;;;4.60;;
9076;SDS011;4574;51.072;17.174;2023-04-24T10:31:54;4.83;;;4.43;;
9076;SDS011;4574;51.072;17.174;2023-04-24T10:34:22;5.40;;;4.90;;
9076;SDS011;4574;51.072;17.174;2023-04-24T10:36:52;5.80;;;5.17;;
9076;SDS011;4574;51.072;17.174;2023-04-24T10:39:23;6.87;;;5.00;;
9076;SDS011;4574;51.072;17.174;2023-04-24T10:41:54;6.10;;;5.50;;
9076;SDS011;4574;51.072;17.174;2023-04-24T10:44:24;6.43;;;5.23;;
9076;SDS011;4574;51.072;17.174;2023-04-24T10:46:55;9.77;;;5.70;;
9076;SDS011;4574;51.072;17.174;2023-04-24T10:49:30;10.57;;;6.40;;
9076;SDS011;4574;51.072;17.174;2023-04-24T10:52:00;6.57;;;5.87;;
9076;SDS011;4574;51.072;17.174;2023-04-24T10:54:34;5.53;;;5.03;;
9076;SDS011;4574;51.072;17.174;2023-04-24T11:00:10;6.27;;;4.97;;
9076;SDS011;4574;51.072;17.174;2023-04-24T11:02:45;7.90;;;4.70;;
9076;SDS011;4574;51.072;17.174;2023-04-24T11:05:17;4.73;;;4.30;;
9076;SDS011;4574;51.072;17.174;2023-04-24T11:10:40;8.27;;;4.70;;
9076;SDS011;4574;51.072;17.174;2023-04-24T11:13:14;5.40;;;4.90;;
9076;SDS011;4574;51.072;17.174;2023-04-24T11:15:44;7.00;;;4.57;;
9076;SDS011;4574;51.072;17.174;2023-04-24T11:18:14;5.17;;;4.50;;
9076;SDS011;4574;51.072;17.174;2023-04-24T11:20:43;6.40;;;4.40;;
9076;SDS011;4574;51.072;17.174;2023-04-24T11:23:13;6.83;;;4.13;;
9076;SDS011;4574;51.072;17.174;2023-04-24T11:25:41;4.03;;;3.73;;
9076;SDS011;4574;51.072;17.174;2023-04-24T11:28:14;6.87;;;4.73;;
9076;SDS011;4574;51.072;17.174;2023-04-24T11:30:44;5.80;;;4.23;;
9076;SDS011;4574;51.072;17.174;2023-04-24T11:33:15;5.03;;;4.53;;
9076;SDS011;4574;51.072;17.174;2023-04-24T11:35:48;5.63;;;4.70;;
9076;SDS011;4574;51.072;17.174;2023-04-24T11:38:19;4.97;;;3.73;;
9076;SDS011;4574;51.072;17.174;2023-04-24T11:40:51;4.60;;;4.20;;
9076;SDS011;4574;51.072;17.174;2023-04-24T11:43:20;6.50;;;4.60;;
9076;SDS011;4574;51.072;17.174;2023-04-24T11:45:50;4.87;;;4.20;;
9076;SDS011;4574;51.072;17.174;2023-04-24T11:48:21;5.67;;;4.80;;
9076;SDS011;4574;51.072;17.174;2023-04-24T11:50:50;5.87;;;4.60;;
9076;SDS011;4574;51.072;17.174;2023-04-24T11:53:19;5.07;;;4.30;;
9076;SDS011;4574;51.072;17.174;2023-04-24T11:55:48;5.10;;;4.57;;
9076;SDS011;4574;51.072;17.174;2023-04-24T11:58:20;5.43;;;4.57;;
9076;SDS011;4574;51.072;17.174;2023-04-24T12:00:55;5.57;;;5.07;;
9076;SDS011;4574;51.072;17.174;2023-04-24T12:03:26;4.83;;;4.33;;
9076;SDS011;4574;51.072;17.174;2023-04-24T12:06:04;6.97;;;5.40;;
9076;SDS011;4574;51.072;17.174;2023-04-24T12:08:34;5.93;;;5.10;;
9076;SDS011;4574;51.072;17.174;2023-04-24T12:11:05;6.73;;;5.20;;
9076;SDS011;4574;51.072;17.174;2023-04-24T12:13:35;6.77;;;4.70;;
9076;SDS011;4574;51.072;17.174;2023-04-24T12:16:04;7.60;;;5.00;;
9076;SDS011;4574;51.072;17.174;2023-04-24T12:18:34;7.27;;;4.80;;
9076;SDS011;4574;51.072;17.174;2023-04-24T12:21:15;5.90;;;4.90;;
9076;SDS011;4574;51.072;17.174;2023-04-24T12:23:48;6.20;;;5.17;;
9076;SDS011;4574;51.072;17.174;2023-04-24T12:26:17;6.90;;;6.23;;
9076;SDS011;4574;51.072;17.174;2023-04-24T12:28:47;7.60;;;5.80;;
9076;SDS011;4574;51.072;17.174;2023-04-24T12:31:16;7.30;;;6.03;;
9076;SDS011;4574;51.072;17.174;2023-04-24T12:33:46;6.43;;;5.63;;
9076;SDS011;4574;51.072;17.174;2023-04-24T12:36:15;5.67;;;4.97;;
9076;SDS011;4574;51.072;17.174;2023-04-24T12:38:44;6.20;;;4.60;;
9076;SDS011;4574;51.072;17.174;2023-04-24T12:41:13;7.50;;;5.50;;
9076;SDS011;4574;51.072;17.174;2023-04-24T12:43:51;6.63;;;5.47;;
9076;SDS011;4574;51.072;17.174;2023-04-24T12:46:20;4.83;;;4.40;;
9076;SDS011;4574;51.072;17.174;2023-04-24T12:48:50;5.83;;;4.90;;
9076;SDS011;4574;51.072;17.174;2023-04-24T12:51:20;5.67;;;4.90;;
9076;SDS011;4574;51.072;17.174;2023-04-24T12:53:48;5.97;;;5.37;;
9076;SDS011;4574;51.072;17.174;2023-04-24T12:56:17;6.70;;;5.20;;
9076;SDS011;4574;51.072;17.174;2023-04-24T12:58:46;7.17;;;5.57;;
9076;SDS011;4574;51.072;17.174;2023-04-24T13:01:14;6.57;;;5.30;;
9076;SDS011;4574;51.072;17.174;2023-04-24T13:03:42;9.07;;;5.97;;
9076;SDS011;4574;51.072;17.174;2023-04-24T13:06:13;6.07;;;5.47;;
9076;SDS011;4574;51.072;17.174;2023-04-24T13:08:42;6.43;;;5.40;;
9076;SDS011;4574;51.072;17.174;2023-04-24T13:11:10;6.80;;;4.67;;
9076;SDS011;4574;51.072;17.174;2023-04-24T13:13:39;7.97;;;5.90;;
9076;SDS011;4574;51.072;17.174;2023-04-24T13:16:08;6.30;;;5.40;;
9076;SDS011;4574;51.072;17.174;2023-04-24T13:18:37;6.97;;;5.03;;
9076;SDS011;4574;51.072;17.174;2023-04-24T13:21:05;6.57;;;5.87;;
9076;SDS011;4574;51.072;17.174;2023-04-24T13:23:36;18.50;;;16.73;;
9076;SDS011;4574;51.072;17.174;2023-04-24T13:26:04;16.23;;;14.70;;
9076;SDS011;4574;51.072;17.174;2023-04-24T13:28:34;12.43;;;10.93;;
9076;SDS011;4574;51.072;17.174;2023-04-24T13:31:03;13.87;;;10.63;;
9076;SDS011;4574;51.072;17.174;2023-04-24T13:33:32;9.53;;;8.50;;
9076;SDS011;4574;51.072;17.174;2023-04-24T13:36:01;9.20;;;7.83;;
9076;SDS011;4574;51.072;17.174;2023-04-24T13:38:30;8.60;;;7.70;;
9076;SDS011;4574;51.072;17.174;2023-04-24T13:41:00;8.77;;;6.27;;
9076;SDS011;4574;51.072;17.174;2023-04-24T13:43:29;9.60;;;6.43;;
9076;SDS011;4574;51.072;17.174;2023-04-24T13:45:58;6.30;;;4.67;;
9076;SDS011;4574;51.072;17.174;2023-04-24T13:48:29;3.47;;;2.77;;
9076;SDS011;4574;51.072;17.174;2023-04-24T13:50:58;3.97;;;2.93;;
9076;SDS011;4574;51.072;17.174;2023-04-24T13:53:27;2.87;;;2.50;;
9076;SDS011;4574;51.072;17.174;2023-04-24T13:55:55;2.40;;;2.00;;
9076;SDS011;4574;51.072;17.174;2023-04-24T13:58:25;2.67;;;2.23;;
9076;SDS011;4574;51.072;17.174;2023-04-24T14:00:54;3.67;;;2.10;;
9076;SDS011;4574;51.072;17.174;2023-04-24T14:03:23;5.83;;;2.47;;
9076;SDS011;4574;51.072;17.174;2023-04-24T14:05:52;9.53;;;3.17;;
9076;SDS011;4574;51.072;17.174;2023-04-24T14:08:20;5.30;;;2.17;;
9076;SDS011;4574;51.072;17.174;2023-04-24T14:10:49;3.13;;;1.80;;
9076;SDS011;4574;51.072;17.174;2023-04-24T14:13:18;2.03;;;1.80;;
9076;SDS011;4574;51.072;17.174;2023-04-24T14:15:49;2.30;;;1.50;;
9076;SDS011;4574;51.072;17.174;2023-04-24T14:18:19;2.70;;;1.40;;
9076;SDS011;4574;51.072;17.174;2023-04-24T14:20:47;1.67;;;1.57;;
9076;SDS011;4574;51.072;17.174;2023-04-24T14:23:16;2.77;;;1.23;;
9076;SDS011;4574;51.072;17.174;2023-04-24T14:25:45;2.30;;;1.07;;
9076;SDS011;4574;51.072;17.174;2023-04-24T14:28:17;1.80;;;1.00;;
9076;SDS011;4574;51.072;17.174;2023-04-24T14:30:46;3.03;;;1.10;;
9076;SDS011;4574;51.072;17.174;2023-04-24T14:33:16;1.10;;;1.00;;
9076;SDS011;4574;51.072;17.174;2023-04-24T14:35:45;3.37;;;1.10;;
9076;SDS011;4574;51.072;17.174;2023-04-24T14:38:14;2.83;;;1.43;;
9076;SDS011;4574;51.072;17.174;2023-04-24T14:40:43;2.77;;;1.30;;
9076;SDS011;4574;51.072;17.174;2023-04-24T14:43:31;3.13;;;1.40;;
9076;SDS011;4574;51.072;17.174;2023-04-24T14:46:04;2.37;;;1.30;;
9076;SDS011;4574;51.072;17.174;2023-04-24T14:48:32;2.67;;;1.60;;
9076;SDS011;4574;51.072;17.174;2023-04-24T14:51:01;2.43;;;1.83;;
9076;SDS011;4574;51.072;17.174;2023-04-24T14:53:31;3.27;;;1.70;;
9076;SDS011;4574;51.072;17.174;2023-04-24T14:55:59;2.67;;;1.40;;
9076;SDS011;4574;51.072;17.174;2023-04-24T14:58:28;2.53;;;1.60;;
9076;SDS011;4574;51.072;17.174;2023-04-24T15:00:56;1.60;;;1.50;;
9076;SDS011;4574;51.072;17.174;2023-04-24T15:03:26;2.50;;;1.53;;
9076;SDS011;4574;51.072;17.174;2023-04-24T15:05:56;5.30;;;1.47;;
9076;SDS011;4574;51.072;17.174;2023-04-24T15:08:25;1.37;;;1.27;;
9076;SDS011;4574;51.072;17.174;2023-04-24T15:10:53;2.63;;;2.03;;
9076;SDS011;4574;51.072;17.174;2023-04-24T15:13:22;3.23;;;1.50;;
9076;SDS011;4574;51.072;17.174;2023-04-24T15:15:50;1.60;;;1.50;;